sensor_id;sensor_type;location;lat;lon;timestamp;temperature;humidity
35127;DHT22;21300;52.006;5.798;2022-09-17T00:01:14;14.60;76.30
35127;DHT22;21300;52.006;5.798;2022-09-17T00:03:42;14.50;76.30
35127;DHT22;21300;52.006;5.798;2022-09-17T00:06:10;14.50;76.40
35127;DHT22;21300;52.006;5.798;2022-09-17T00:08:38;14.60;76.30
35127;DHT22;21300;52.006;5.798;2022-09-17T00:14:03;14.60;76.20
35127;DHT22;21300;52.006;5.798;2022-09-17T00:16:33;14.60;76.30
35127;DHT22;21300;52.006;5.798;2022-09-17T00:19:00;14.60;76.20
35127;DHT22;21300;52.006;5.798;2022-09-17T00:21:26;14.60;76.30
35127;DHT22;21300;52.006;5.798;2022-09-17T00:23:56;14.50;76.30
35127;DHT22;21300;52.006;5.798;2022-09-17T00:26:22;14.60;76.30
35127;DHT22;21300;52.006;5.798;2022-09-17T00:28:52;14.60;76.30
35127;DHT22;21300;52.006;5.798;2022-09-17T00:31:18;14.50;76.30
35127;DHT22;21300;52.006;5.798;2022-09-17T00:33:44;14.50;76.30
35127;DHT22;21300;52.006;5.798;2022-09-17T00:36:10;14.50;76.40
35127;DHT22;21300;52.006;5.798;2022-09-17T00:38:36;14.50;76.40
35127;DHT22;21300;52.006;5.798;2022-09-17T00:41:03;14.50;76.40
35127;DHT22;21300;52.006;5.798;2022-09-17T00:46:08;14.50;76.60
35127;DHT22;21300;52.006;5.798;2022-09-17T00:48:34;14.50;76.50
35127;DHT22;21300;52.006;5.798;2022-09-17T00:51:01;14.40;76.50
35127;DHT22;21300;52.006;5.798;2022-09-17T00:53:27;14.40;76.50
35127;DHT22;21300;52.006;5.798;2022-09-17T00:56:01;14.40;76.50
35127;DHT22;21300;52.006;5.798;2022-09-17T00:58:28;14.40;76.60
35127;DHT22;21300;52.006;5.798;2022-09-17T01:00:55;14.50;76.60
35127;DHT22;21300;52.006;5.798;2022-09-17T01:03:21;14.40;76.60
35127;DHT22;21300;52.006;5.798;2022-09-17T01:06:04;14.40;76.70
35127;DHT22;21300;52.006;5.798;2022-09-17T01:16:59;14.40;76.70
35127;DHT22;21300;52.006;5.798;2022-09-17T01:22:33;14.40;76.70
35127;DHT22;21300;52.006;5.798;2022-09-17T01:25:23;14.40;76.90
35127;DHT22;21300;52.006;5.798;2022-09-17T01:28:13;14.30;77.20
35127;DHT22;21300;52.006;5.798;2022-09-17T01:33:43;14.30;77.00
35127;DHT22;21300;52.006;5.798;2022-09-17T01:39:27;14.30;76.90
35127;DHT22;21300;52.006;5.798;2022-09-17T01:42:01;14.30;76.90
35127;DHT22;21300;52.006;5.798;2022-09-17T01:44:36;14.30;76.90
35127;DHT22;21300;52.006;5.798;2022-09-17T01:47:15;14.30;76.80
35127;DHT22;21300;52.006;5.798;2022-09-17T01:49:43;14.30;77.10
35127;DHT22;21300;52.006;5.798;2022-09-17T01:52:12;14.30;76.90
35127;DHT22;21300;52.006;5.798;2022-09-17T01:54:45;14.30;76.90
35127;DHT22;21300;52.006;5.798;2022-09-17T01:57:22;14.30;76.90
35127;DHT22;21300;52.006;5.798;2022-09-17T02:02:46;14.30;77.10
35127;DHT22;21300;52.006;5.798;2022-09-17T02:05:34;14.20;77.10
35127;DHT22;21300;52.006;5.798;2022-09-17T02:08:09;14.20;77.00
35127;DHT22;21300;52.006;5.798;2022-09-17T02:10:41;14.20;77.00
35127;DHT22;21300;52.006;5.798;2022-09-17T02:15:51;14.20;77.10
35127;DHT22;21300;52.006;5.798;2022-09-17T02:19:08;14.20;77.10
35127;DHT22;21300;52.006;5.798;2022-09-17T02:21:42;14.20;77.10
35127;DHT22;21300;52.006;5.798;2022-09-17T02:24:18;14.20;77.10
35127;DHT22;21300;52.006;5.798;2022-09-17T02:29:28;14.10;77.10
35127;DHT22;21300;52.006;5.798;2022-09-17T02:31:55;14.10;77.10
35127;DHT22;21300;52.006;5.798;2022-09-17T02:34:21;14.10;77.10
35127;DHT22;21300;52.006;5.798;2022-09-17T02:36:51;14.10;77.20
35127;DHT22;21300;52.006;5.798;2022-09-17T02:39:17;14.10;77.20
35127;DHT22;21300;52.006;5.798;2022-09-17T02:42:14;14.10;77.20
35127;DHT22;21300;52.006;5.798;2022-09-17T03:00:34;14.00;77.30
35127;DHT22;21300;52.006;5.798;2022-09-17T03:05:47;14.00;77.30
35127;DHT22;21300;52.006;5.798;2022-09-17T03:08:13;14.00;77.40
35127;DHT22;21300;52.006;5.798;2022-09-17T03:10:40;13.90;77.30
35127;DHT22;21300;52.006;5.798;2022-09-17T03:13:06;14.00;77.30
35127;DHT22;21300;52.006;5.798;2022-09-17T03:15:32;13.90;78.00
35127;DHT22;21300;52.006;5.798;2022-09-17T03:17:57;13.90;77.30
35127;DHT22;21300;52.006;5.798;2022-09-17T03:20:23;13.90;77.30
35127;DHT22;21300;52.006;5.798;2022-09-17T03:22:50;13.90;77.30
35127;DHT22;21300;52.006;5.798;2022-09-17T03:25:16;13.90;77.30
35127;DHT22;21300;52.006;5.798;2022-09-17T03:27:42;13.90;77.30
35127;DHT22;21300;52.006;5.798;2022-09-17T03:30:08;13.90;77.50
35127;DHT22;21300;52.006;5.798;2022-09-17T03:32:33;13.90;77.30
35127;DHT22;21300;52.006;5.798;2022-09-17T03:34:59;13.80;77.30
35127;DHT22;21300;52.006;5.798;2022-09-17T03:37:24;13.80;77.40
35127;DHT22;21300;52.006;5.798;2022-09-17T03:39:50;13.80;77.30
35127;DHT22;21300;52.006;5.798;2022-09-17T03:42:16;13.80;77.40
35127;DHT22;21300;52.006;5.798;2022-09-17T03:44:42;13.80;77.40
35127;DHT22;21300;52.006;5.798;2022-09-17T03:47:08;13.80;77.50
35127;DHT22;21300;52.006;5.798;2022-09-17T03:49:33;13.80;77.50
35127;DHT22;21300;52.006;5.798;2022-09-17T03:51:59;13.80;77.50
35127;DHT22;21300;52.006;5.798;2022-09-17T03:54:25;13.80;77.50
35127;DHT22;21300;52.006;5.798;2022-09-17T03:56:50;13.70;77.40
35127;DHT22;21300;52.006;5.798;2022-09-17T03:59:16;13.70;77.40
35127;DHT22;21300;52.006;5.798;2022-09-17T04:01:41;13.70;77.40
35127;DHT22;21300;52.006;5.798;2022-09-17T04:04:08;13.70;77.50
35127;DHT22;21300;52.006;5.798;2022-09-17T04:06:33;13.60;77.40
35127;DHT22;21300;52.006;5.798;2022-09-17T04:08:59;13.60;77.50
35127;DHT22;21300;52.006;5.798;2022-09-17T04:11:29;13.60;77.60
35127;DHT22;21300;52.006;5.798;2022-09-17T04:13:55;13.60;77.60
35127;DHT22;21300;52.006;5.798;2022-09-17T04:16:20;13.60;77.60
35127;DHT22;21300;52.006;5.798;2022-09-17T04:18:46;13.60;77.60
35127;DHT22;21300;52.006;5.798;2022-09-17T04:21:12;13.60;77.70
35127;DHT22;21300;52.006;5.798;2022-09-17T04:23:37;13.60;77.70
35127;DHT22;21300;52.006;5.798;2022-09-17T04:26:23;13.60;77.70
35127;DHT22;21300;52.006;5.798;2022-09-17T04:28:48;13.50;77.70
35127;DHT22;21300;52.006;5.798;2022-09-17T04:31:14;13.60;77.80
35127;DHT22;21300;52.006;5.798;2022-09-17T04:33:40;13.50;77.60
35127;DHT22;21300;52.006;5.798;2022-09-17T04:36:05;13.50;77.60
35127;DHT22;21300;52.006;5.798;2022-09-17T04:38:31;13.50;77.80
35127;DHT22;21300;52.006;5.798;2022-09-17T04:40:58;13.50;77.90
35127;DHT22;21300;52.006;5.798;2022-09-17T04:43:24;13.50;77.80
35127;DHT22;21300;52.006;5.798;2022-09-17T04:45:49;13.50;77.80
35127;DHT22;21300;52.006;5.798;2022-09-17T04:48:15;13.50;77.90
35127;DHT22;21300;52.006;5.798;2022-09-17T04:50:41;13.50;77.90
35127;DHT22;21300;52.006;5.798;2022-09-17T04:53:06;13.40;77.90
35127;DHT22;21300;52.006;5.798;2022-09-17T04:55:32;13.40;77.90
35127;DHT22;21300;52.006;5.798;2022-09-17T04:57:58;13.40;78.10
35127;DHT22;21300;52.006;5.798;2022-09-17T05:00:24;13.40;78.00
35127;DHT22;21300;52.006;5.798;2022-09-17T05:02:52;13.40;78.10
35127;DHT22;21300;52.006;5.798;2022-09-17T05:05:18;13.40;78.00
35127;DHT22;21300;52.006;5.798;2022-09-17T05:07:44;13.40;78.20
35127;DHT22;21300;52.006;5.798;2022-09-17T05:10:11;13.30;78.00
35127;DHT22;21300;52.006;5.798;2022-09-17T05:12:37;13.30;78.20
35127;DHT22;21300;52.006;5.798;2022-09-17T05:15:04;13.30;78.20
35127;DHT22;21300;52.006;5.798;2022-09-17T05:17:30;13.30;78.20
35127;DHT22;21300;52.006;5.798;2022-09-17T05:19:56;13.30;78.20
35127;DHT22;21300;52.006;5.798;2022-09-17T05:22:22;13.30;78.20
35127;DHT22;21300;52.006;5.798;2022-09-17T05:24:47;13.30;78.40
35127;DHT22;21300;52.006;5.798;2022-09-17T05:27:13;13.30;78.50
35127;DHT22;21300;52.006;5.798;2022-09-17T05:29:38;13.30;78.30
35127;DHT22;21300;52.006;5.798;2022-09-17T05:32:22;13.20;78.20
35127;DHT22;21300;52.006;5.798;2022-09-17T05:34:48;13.30;78.40
35127;DHT22;21300;52.006;5.798;2022-09-17T05:37:14;13.20;78.50
35127;DHT22;21300;52.006;5.798;2022-09-17T05:39:40;13.30;78.30
35127;DHT22;21300;52.006;5.798;2022-09-17T05:42:05;13.30;78.30
35127;DHT22;21300;52.006;5.798;2022-09-17T05:44:31;13.20;78.30
35127;DHT22;21300;52.006;5.798;2022-09-17T05:46:57;13.20;78.30
35127;DHT22;21300;52.006;5.798;2022-09-17T05:49:23;13.20;78.30
35127;DHT22;21300;52.006;5.798;2022-09-17T05:51:49;13.20;78.50
35127;DHT22;21300;52.006;5.798;2022-09-17T05:54:15;13.20;78.50
35127;DHT22;21300;52.006;5.798;2022-09-17T05:56:41;13.20;78.60
35127;DHT22;21300;52.006;5.798;2022-09-17T05:59:06;13.20;78.60
35127;DHT22;21300;52.006;5.798;2022-09-17T06:01:32;13.10;78.50
35127;DHT22;21300;52.006;5.798;2022-09-17T06:03:57;13.10;78.70
35127;DHT22;21300;52.006;5.798;2022-09-17T06:06:23;13.10;78.80
35127;DHT22;21300;52.006;5.798;2022-09-17T06:08:49;13.10;78.90
35127;DHT22;21300;52.006;5.798;2022-09-17T06:11:15;13.10;78.80
35127;DHT22;21300;52.006;5.798;2022-09-17T06:13:40;13.10;78.90
35127;DHT22;21300;52.006;5.798;2022-09-17T06:16:08;13.10;78.90
35127;DHT22;21300;52.006;5.798;2022-09-17T06:18:33;13.10;78.90
35127;DHT22;21300;52.006;5.798;2022-09-17T06:21:01;13.10;79.00
35127;DHT22;21300;52.006;5.798;2022-09-17T06:23:30;13.10;79.70
35127;DHT22;21300;52.006;5.798;2022-09-17T06:25:58;13.10;79.70
35127;DHT22;21300;52.006;5.798;2022-09-17T06:28:25;13.00;79.70
35127;DHT22;21300;52.006;5.798;2022-09-17T06:30:51;13.10;79.70
35127;DHT22;21300;52.006;5.798;2022-09-17T06:33:19;13.00;79.70
35127;DHT22;21300;52.006;5.798;2022-09-17T06:35:45;13.00;79.70
35127;DHT22;21300;52.006;5.798;2022-09-17T06:38:10;13.00;79.70
35127;DHT22;21300;52.006;5.798;2022-09-17T06:40:36;13.00;79.80
35127;DHT22;21300;52.006;5.798;2022-09-17T06:43:02;13.00;79.90
35127;DHT22;21300;52.006;5.798;2022-09-17T06:45:28;13.00;80.30
35127;DHT22;21300;52.006;5.798;2022-09-17T06:48:13;13.00;80.00
35127;DHT22;21300;52.006;5.798;2022-09-17T06:50:38;13.00;79.90
35127;DHT22;21300;52.006;5.798;2022-09-17T06:53:04;13.00;79.70
35127;DHT22;21300;52.006;5.798;2022-09-17T06:55:30;13.00;79.60
35127;DHT22;21300;52.006;5.798;2022-09-17T06:57:58;13.00;79.60
35127;DHT22;21300;52.006;5.798;2022-09-17T07:00:24;13.00;79.50
35127;DHT22;21300;52.006;5.798;2022-09-17T07:02:58;13.00;79.30
35127;DHT22;21300;52.006;5.798;2022-09-17T07:05:25;13.00;79.50
35127;DHT22;21300;52.006;5.798;2022-09-17T07:07:51;13.00;79.00
35127;DHT22;21300;52.006;5.798;2022-09-17T07:10:17;13.00;78.90
35127;DHT22;21300;52.006;5.798;2022-09-17T07:12:42;13.00;78.70
35127;DHT22;21300;52.006;5.798;2022-09-17T07:15:09;13.00;78.50
35127;DHT22;21300;52.006;5.798;2022-09-17T07:17:36;13.00;78.80
35127;DHT22;21300;52.006;5.798;2022-09-17T07:20:04;12.60;80.10
35127;DHT22;21300;52.006;5.798;2022-09-17T07:22:30;12.30;81.60
35127;DHT22;21300;52.006;5.798;2022-09-17T07:24:55;12.20;82.00
35127;DHT22;21300;52.006;5.798;2022-09-17T07:27:21;12.20;82.50
35127;DHT22;21300;52.006;5.798;2022-09-17T07:29:46;12.20;82.40
35127;DHT22;21300;52.006;5.798;2022-09-17T07:32:12;12.10;82.70
35127;DHT22;21300;52.006;5.798;2022-09-17T07:34:38;12.20;82.90
35127;DHT22;21300;52.006;5.798;2022-09-17T07:37:04;12.20;83.60
35127;DHT22;21300;52.006;5.798;2022-09-17T07:39:30;12.00;82.30
35127;DHT22;21300;52.006;5.798;2022-09-17T07:41:55;12.10;83.80
35127;DHT22;21300;52.006;5.798;2022-09-17T07:44:21;12.10;82.30
35127;DHT22;21300;52.006;5.798;2022-09-17T07:46:47;12.10;82.70
35127;DHT22;21300;52.006;5.798;2022-09-17T07:49:12;12.10;82.90
35127;DHT22;21300;52.006;5.798;2022-09-17T07:51:38;12.10;83.20
35127;DHT22;21300;52.006;5.798;2022-09-17T07:54:03;12.30;83.20
35127;DHT22;21300;52.006;5.798;2022-09-17T07:56:30;12.30;82.90
35127;DHT22;21300;52.006;5.798;2022-09-17T07:58:56;12.30;83.40
35127;DHT22;21300;52.006;5.798;2022-09-17T08:01:21;12.30;83.00
35127;DHT22;21300;52.006;5.798;2022-09-17T08:03:49;12.40;82.60
35127;DHT22;21300;52.006;5.798;2022-09-17T08:06:18;12.40;81.90
35127;DHT22;21300;52.006;5.798;2022-09-17T08:08:44;12.50;81.70
35127;DHT22;21300;52.006;5.798;2022-09-17T08:11:15;12.60;81.40
35127;DHT22;21300;52.006;5.798;2022-09-17T08:16:11;12.90;80.20
35127;DHT22;21300;52.006;5.798;2022-09-17T08:18:41;13.00;80.30
35127;DHT22;21300;52.006;5.798;2022-09-17T08:21:10;13.00;80.50
35127;DHT22;21300;52.006;5.798;2022-09-17T08:23:38;13.20;81.00
35127;DHT22;21300;52.006;5.798;2022-09-17T08:26:06;13.20;79.20
35127;DHT22;21300;52.006;5.798;2022-09-17T08:28:34;13.30;79.00
35127;DHT22;21300;52.006;5.798;2022-09-17T08:31:07;13.30;78.60
35127;DHT22;21300;52.006;5.798;2022-09-17T08:36:21;13.40;91.20
35127;DHT22;21300;52.006;5.798;2022-09-17T08:38:54;13.50;77.70
35127;DHT22;21300;52.006;5.798;2022-09-17T08:41:25;13.50;77.20
35127;DHT22;21300;52.006;5.798;2022-09-17T08:46:52;13.70;76.20
35127;DHT22;21300;52.006;5.798;2022-09-17T08:49:44;13.70;76.90
35127;DHT22;21300;52.006;5.798;2022-09-17T09:01:34;13.80;77.70
35127;DHT22;21300;52.006;5.798;2022-09-17T09:07:01;13.80;77.50
35127;DHT22;21300;52.006;5.798;2022-09-17T09:09:33;13.90;77.20
35127;DHT22;21300;52.006;5.798;2022-09-17T09:12:17;13.90;77.00
35127;DHT22;21300;52.006;5.798;2022-09-17T09:14:59;13.90;77.10
35127;DHT22;21300;52.006;5.798;2022-09-17T09:17:31;13.90;76.90
35127;DHT22;21300;52.006;5.798;2022-09-17T09:19:58;13.90;77.00
35127;DHT22;21300;52.006;5.798;2022-09-17T09:22:30;14.00;76.00
35127;DHT22;21300;52.006;5.798;2022-09-17T09:25:27;14.00;76.30
35127;DHT22;21300;52.006;5.798;2022-09-17T09:34:01;14.10;76.50
35127;DHT22;21300;52.006;5.798;2022-09-17T09:36:29;14.10;76.40
35127;DHT22;21300;52.006;5.798;2022-09-17T09:44:13;14.20;76.80
35127;DHT22;21300;52.006;5.798;2022-09-17T09:52:50;14.30;76.80
35127;DHT22;21300;52.006;5.798;2022-09-17T09:55:47;14.30;76.70
35127;DHT22;21300;52.006;5.798;2022-09-17T09:58:38;14.40;76.80
35127;DHT22;21300;52.006;5.798;2022-09-17T10:01:16;14.40;76.80
35127;DHT22;21300;52.006;5.798;2022-09-17T10:03:46;14.50;78.00
35127;DHT22;21300;52.006;5.798;2022-09-17T10:06:13;14.50;78.30
35127;DHT22;21300;52.006;5.798;2022-09-17T10:11:27;14.50;79.10
35127;DHT22;21300;52.006;5.798;2022-09-17T10:16:38;14.60;79.70
35127;DHT22;21300;52.006;5.798;2022-09-17T10:21:35;14.70;79.80
35127;DHT22;21300;52.006;5.798;2022-09-17T10:24:02;14.70;79.80
35127;DHT22;21300;52.006;5.798;2022-09-17T10:26:31;14.70;79.80
35127;DHT22;21300;52.006;5.798;2022-09-17T10:28:59;14.80;80.00
35127;DHT22;21300;52.006;5.798;2022-09-17T10:31:26;14.70;79.90
35127;DHT22;21300;52.006;5.798;2022-09-17T10:34:01;14.80;79.80
35127;DHT22;21300;52.006;5.798;2022-09-17T10:39:21;14.80;79.80
35127;DHT22;21300;52.006;5.798;2022-09-17T10:42:12;14.80;79.70
35127;DHT22;21300;52.006;5.798;2022-09-17T10:44:50;14.90;79.80
35127;DHT22;21300;52.006;5.798;2022-09-17T10:52:55;14.90;79.80
35127;DHT22;21300;52.006;5.798;2022-09-17T10:58:32;15.00;79.50
35127;DHT22;21300;52.006;5.798;2022-09-17T11:14:50;15.10;79.00
35127;DHT22;21300;52.006;5.798;2022-09-17T11:25:50;15.20;78.90
35127;DHT22;21300;52.006;5.798;2022-09-17T11:28:41;15.20;78.80
35127;DHT22;21300;52.006;5.798;2022-09-17T11:34:34;15.30;78.50
35127;DHT22;21300;52.006;5.798;2022-09-17T11:39:47;15.40;76.50
35127;DHT22;21300;52.006;5.798;2022-09-17T11:42:19;15.50;74.80
35127;DHT22;21300;52.006;5.798;2022-09-17T11:44:53;15.60;74.00
35127;DHT22;21300;52.006;5.798;2022-09-17T11:47:29;15.70;73.30
35127;DHT22;21300;52.006;5.798;2022-09-17T11:52:40;15.70;71.60
35127;DHT22;21300;52.006;5.798;2022-09-17T11:55:26;15.80;71.50
35127;DHT22;21300;52.006;5.798;2022-09-17T11:58:26;15.80;71.40
35127;DHT22;21300;52.006;5.798;2022-09-17T12:01:03;15.90;71.80
35127;DHT22;21300;52.006;5.798;2022-09-17T12:03:34;16.00;72.30
35127;DHT22;21300;52.006;5.798;2022-09-17T12:06:08;16.00;72.70
35127;DHT22;21300;52.006;5.798;2022-09-17T12:11:33;16.00;73.50
35127;DHT22;21300;52.006;5.798;2022-09-17T12:14:26;16.00;73.40
35127;DHT22;21300;52.006;5.798;2022-09-17T12:16:58;16.00;73.80
35127;DHT22;21300;52.006;5.798;2022-09-17T12:19:32;16.10;74.20
35127;DHT22;21300;52.006;5.798;2022-09-17T12:22:07;16.00;74.50
35127;DHT22;21300;52.006;5.798;2022-09-17T12:24:35;16.00;74.50
35127;DHT22;21300;52.006;5.798;2022-09-17T12:30:17;16.10;74.90
35127;DHT22;21300;52.006;5.798;2022-09-17T12:41:19;16.20;75.40
35127;DHT22;21300;52.006;5.798;2022-09-17T12:55:29;16.20;75.10
35127;DHT22;21300;52.006;5.798;2022-09-17T13:01:34;16.20;74.80
35127;DHT22;21300;52.006;5.798;2022-09-17T13:04:22;16.20;75.00
35127;DHT22;21300;52.006;5.798;2022-09-17T13:07:09;16.10;75.00
35127;DHT22;21300;52.006;5.798;2022-09-17T13:15:55;16.20;75.00
35127;DHT22;21300;52.006;5.798;2022-09-17T13:18:24;16.20;74.90
35127;DHT22;21300;52.006;5.798;2022-09-17T13:23:34;16.20;74.90
35127;DHT22;21300;52.006;5.798;2022-09-17T13:26:02;16.20;74.50
35127;DHT22;21300;52.006;5.798;2022-09-17T13:28:40;16.20;75.70
35127;DHT22;21300;52.006;5.798;2022-09-17T13:31:06;16.20;74.80
35127;DHT22;21300;52.006;5.798;2022-09-17T13:33:56;16.20;75.10
35127;DHT22;21300;52.006;5.798;2022-09-17T13:36:50;16.20;74.80
35127;DHT22;21300;52.006;5.798;2022-09-17T13:44:40;16.20;75.00
35127;DHT22;21300;52.006;5.798;2022-09-17T13:47:28;16.10;74.80
35127;DHT22;21300;52.006;5.798;2022-09-17T13:50:02;16.20;74.50
35127;DHT22;21300;52.006;5.798;2022-09-17T13:52:46;16.10;74.90
35127;DHT22;21300;52.006;5.798;2022-09-17T14:01:01;16.10;74.60
35127;DHT22;21300;52.006;5.798;2022-09-17T14:08:45;16.10;74.70
35127;DHT22;21300;52.006;5.798;2022-09-17T14:13:53;16.10;74.90
35127;DHT22;21300;52.006;5.798;2022-09-17T14:27:31;16.10;75.20
35127;DHT22;21300;52.006;5.798;2022-09-17T14:35:11;16.10;75.20
35127;DHT22;21300;52.006;5.798;2022-09-17T14:37:39;16.10;75.20
35127;DHT22;21300;52.006;5.798;2022-09-17T14:40:10;16.00;75.20
35127;DHT22;21300;52.006;5.798;2022-09-17T14:42:38;15.90;74.60
35127;DHT22;21300;52.006;5.798;2022-09-17T14:45:18;15.90;74.20
35127;DHT22;21300;52.006;5.798;2022-09-17T14:47:45;15.80;74.40
35127;DHT22;21300;52.006;5.798;2022-09-17T14:50:20;15.80;73.60
35127;DHT22;21300;52.006;5.798;2022-09-17T14:52:47;15.80;73.40
35127;DHT22;21300;52.006;5.798;2022-09-17T14:55:20;15.70;72.30
35127;DHT22;21300;52.006;5.798;2022-09-17T14:57:54;15.70;70.80
35127;DHT22;21300;52.006;5.798;2022-09-17T15:00:22;15.70;70.60
35127;DHT22;21300;52.006;5.798;2022-09-17T15:02:50;15.70;70.30
35127;DHT22;21300;52.006;5.798;2022-09-17T15:07:43;15.60;70.00
35127;DHT22;21300;52.006;5.798;2022-09-17T15:10:13;15.60;69.50
35127;DHT22;21300;52.006;5.798;2022-09-17T15:12:39;15.60;69.70
35127;DHT22;21300;52.006;5.798;2022-09-17T15:15:18;15.70;69.80
35127;DHT22;21300;52.006;5.798;2022-09-17T15:17:44;15.70;70.50
35127;DHT22;21300;52.006;5.798;2022-09-17T15:20:22;15.70;70.50
35127;DHT22;21300;52.006;5.798;2022-09-17T15:25:29;15.70;70.80
35127;DHT22;21300;52.006;5.798;2022-09-17T15:27:57;15.70;70.50
35127;DHT22;21300;52.006;5.798;2022-09-17T15:30:25;15.70;70.40
35127;DHT22;21300;52.006;5.798;2022-09-17T15:35:31;15.70;70.90
35127;DHT22;21300;52.006;5.798;2022-09-17T15:38:23;15.70;70.70
35127;DHT22;21300;52.006;5.798;2022-09-17T15:40:51;15.70;71.00
35127;DHT22;21300;52.006;5.798;2022-09-17T15:43:29;15.70;71.90
35127;DHT22;21300;52.006;5.798;2022-09-17T15:45:55;15.70;71.60
35127;DHT22;21300;52.006;5.798;2022-09-17T15:48:36;15.70;71.70
35127;DHT22;21300;52.006;5.798;2022-09-17T15:51:05;15.70;71.80
35127;DHT22;21300;52.006;5.798;2022-09-17T15:53:33;15.70;71.90
35127;DHT22;21300;52.006;5.798;2022-09-17T15:58:50;15.70;72.20
35127;DHT22;21300;52.006;5.798;2022-09-17T16:11:20;15.70;72.60
35127;DHT22;21300;52.006;5.798;2022-09-17T16:13:47;15.70;72.70
35127;DHT22;21300;52.006;5.798;2022-09-17T16:16:23;15.70;72.70
35127;DHT22;21300;52.006;5.798;2022-09-17T16:18:49;15.70;72.70
35127;DHT22;21300;52.006;5.798;2022-09-17T16:21:17;15.70;73.60
35127;DHT22;21300;52.006;5.798;2022-09-17T16:23:43;15.60;72.80
35127;DHT22;21300;52.006;5.798;2022-09-17T16:26:23;15.70;73.00
35127;DHT22;21300;52.006;5.798;2022-09-17T16:28:53;15.60;73.00
35127;DHT22;21300;52.006;5.798;2022-09-17T16:31:24;15.60;72.80
35127;DHT22;21300;52.006;5.798;2022-09-17T16:33:50;15.60;72.90
35127;DHT22;21300;52.006;5.798;2022-09-17T16:36:16;15.60;73.00
35127;DHT22;21300;52.006;5.798;2022-09-17T16:38:42;15.60;73.00
35127;DHT22;21300;52.006;5.798;2022-09-17T16:41:08;15.60;73.00
35127;DHT22;21300;52.006;5.798;2022-09-17T16:43:34;15.60;73.00
35127;DHT22;21300;52.006;5.798;2022-09-17T16:46:06;15.50;72.90
35127;DHT22;21300;52.006;5.798;2022-09-17T16:48:33;15.50;73.00
35127;DHT22;21300;52.006;5.798;2022-09-17T16:50:59;15.50;72.80
35127;DHT22;21300;52.006;5.798;2022-09-17T16:53:28;15.50;72.90
35127;DHT22;21300;52.006;5.798;2022-09-17T16:55:53;15.50;72.90
35127;DHT22;21300;52.006;5.798;2022-09-17T16:58:19;15.50;72.80
35127;DHT22;21300;52.006;5.798;2022-09-17T17:00:45;15.50;72.90
35127;DHT22;21300;52.006;5.798;2022-09-17T17:03:12;15.40;72.90
35127;DHT22;21300;52.006;5.798;2022-09-17T17:05:38;15.40;72.90
35127;DHT22;21300;52.006;5.798;2022-09-17T17:08:04;15.40;72.90
35127;DHT22;21300;52.006;5.798;2022-09-17T17:10:30;15.40;72.90
35127;DHT22;21300;52.006;5.798;2022-09-17T17:12:56;15.40;72.90
35127;DHT22;21300;52.006;5.798;2022-09-17T17:15:22;15.40;72.90
35127;DHT22;21300;52.006;5.798;2022-09-17T17:17:48;15.40;72.90
35127;DHT22;21300;52.006;5.798;2022-09-17T17:20:14;15.40;73.00
35127;DHT22;21300;52.006;5.798;2022-09-17T17:22:41;15.30;72.80
35127;DHT22;21300;52.006;5.798;2022-09-17T17:25:12;15.40;73.20
35127;DHT22;21300;52.006;5.798;2022-09-17T17:27:38;15.30;73.00
35127;DHT22;21300;52.006;5.798;2022-09-17T17:30:06;15.30;73.00
35127;DHT22;21300;52.006;5.798;2022-09-17T17:32:33;15.30;73.00
35127;DHT22;21300;52.006;5.798;2022-09-17T17:34:59;15.30;73.00
35127;DHT22;21300;52.006;5.798;2022-09-17T17:37:25;15.30;73.10
35127;DHT22;21300;52.006;5.798;2022-09-17T17:39:51;15.30;73.10
35127;DHT22;21300;52.006;5.798;2022-09-17T17:42:17;15.30;73.10
35127;DHT22;21300;52.006;5.798;2022-09-17T17:44:43;15.30;73.10
35127;DHT22;21300;52.006;5.798;2022-09-17T17:47:08;15.30;73.10
35127;DHT22;21300;52.006;5.798;2022-09-17T17:49:34;15.30;73.10
35127;DHT22;21300;52.006;5.798;2022-09-17T17:52:00;15.30;73.10
35127;DHT22;21300;52.006;5.798;2022-09-17T17:54:25;15.30;73.20
35127;DHT22;21300;52.006;5.798;2022-09-17T17:56:53;15.30;73.20
35127;DHT22;21300;52.006;5.798;2022-09-17T17:59:19;15.30;73.30
35127;DHT22;21300;52.006;5.798;2022-09-17T18:01:44;15.20;73.30
35127;DHT22;21300;52.006;5.798;2022-09-17T18:04:10;15.20;73.30
35127;DHT22;21300;52.006;5.798;2022-09-17T18:06:36;15.20;73.40
35127;DHT22;21300;52.006;5.798;2022-09-17T18:09:02;15.20;73.40
35127;DHT22;21300;52.006;5.798;2022-09-17T18:11:29;15.20;73.50
35127;DHT22;21300;52.006;5.798;2022-09-17T18:13:56;15.20;73.50
35127;DHT22;21300;52.006;5.798;2022-09-17T18:16:22;15.20;73.50
35127;DHT22;21300;52.006;5.798;2022-09-17T18:18:48;15.20;73.60
35127;DHT22;21300;52.006;5.798;2022-09-17T18:21:19;15.10;73.50
35127;DHT22;21300;52.006;5.798;2022-09-17T18:23:46;15.20;73.60
35127;DHT22;21300;52.006;5.798;2022-09-17T18:26:17;15.10;73.60
35127;DHT22;21300;52.006;5.798;2022-09-17T18:28:43;15.10;73.60
35127;DHT22;21300;52.006;5.798;2022-09-17T18:34:00;15.10;73.60
35127;DHT22;21300;52.006;5.798;2022-09-17T18:36:28;15.10;73.70
35127;DHT22;21300;52.006;5.798;2022-09-17T18:38:55;15.10;73.70
35127;DHT22;21300;52.006;5.798;2022-09-17T18:41:23;15.10;73.80
35127;DHT22;21300;52.006;5.798;2022-09-17T18:43:48;15.10;73.80
35127;DHT22;21300;52.006;5.798;2022-09-17T18:46:14;15.00;73.80
35127;DHT22;21300;52.006;5.798;2022-09-17T18:48:40;15.00;73.80
35127;DHT22;21300;52.006;5.798;2022-09-17T18:51:10;15.00;74.00
35127;DHT22;21300;52.006;5.798;2022-09-17T18:53:37;15.00;74.00
35127;DHT22;21300;52.006;5.798;2022-09-17T18:56:08;15.00;74.00
35127;DHT22;21300;52.006;5.798;2022-09-17T18:58:35;15.00;74.00
35127;DHT22;21300;52.006;5.798;2022-09-17T19:01:04;15.00;74.10
35127;DHT22;21300;52.006;5.798;2022-09-17T19:03:30;15.00;74.10
35127;DHT22;21300;52.006;5.798;2022-09-17T19:06:02;14.90;74.10
35127;DHT22;21300;52.006;5.798;2022-09-17T19:08:28;14.90;74.20
35127;DHT22;21300;52.006;5.798;2022-09-17T19:10:54;14.90;74.10
35127;DHT22;21300;52.006;5.798;2022-09-17T19:13:20;14.90;74.10
35127;DHT22;21300;52.006;5.798;2022-09-17T19:15:46;14.90;74.20
35127;DHT22;21300;52.006;5.798;2022-09-17T19:18:12;14.90;74.10
35127;DHT22;21300;52.006;5.798;2022-09-17T19:20:37;14.90;74.20
35127;DHT22;21300;52.006;5.798;2022-09-17T19:23:04;14.90;74.30
35127;DHT22;21300;52.006;5.798;2022-09-17T19:25:31;14.80;74.20
35127;DHT22;21300;52.006;5.798;2022-09-17T19:27:57;14.80;74.30
35127;DHT22;21300;52.006;5.798;2022-09-17T19:30:23;14.90;74.60
35127;DHT22;21300;52.006;5.798;2022-09-17T19:32:49;14.90;78.30
35127;DHT22;21300;52.006;5.798;2022-09-17T19:35:16;14.80;74.50
35127;DHT22;21300;52.006;5.798;2022-09-17T19:37:41;14.80;74.50
35127;DHT22;21300;52.006;5.798;2022-09-17T19:40:08;14.80;74.60